createdAt,value
2023-02-27T00:02:40.313Z,-2.99
2023-02-27T00:05:26.106Z,-3.03
2023-02-27T00:08:11.829Z,-3.06
2023-02-27T00:10:59.252Z,-3.10
2023-02-27T00:13:45.321Z,-3.11
2023-02-27T00:16:31.085Z,-3.13
2023-02-27T00:19:17.005Z,-3.14
2023-02-27T00:22:02.742Z,-3.17
2023-02-27T00:24:48.770Z,-3.26
2023-02-27T00:27:36.914Z,-3.32
2023-02-27T00:30:23.207Z,-3.30
2023-02-27T00:33:09.297Z,-3.30
2023-02-27T00:35:58.247Z,-3.35
2023-02-27T00:38:43.985Z,-3.36
2023-02-27T00:41:29.829Z,-3.36
2023-02-27T00:44:18.189Z,-3.41
2023-02-27T00:47:05.019Z,-3.47
2023-02-27T00:49:51.669Z,-3.50
2023-02-27T00:52:37.307Z,-3.51
2023-02-27T00:55:22.901Z,-3.54
2023-02-27T00:58:08.623Z,-3.54
2023-02-27T01:00:55.871Z,-3.55
2023-02-27T01:03:42.244Z,-3.59
2023-02-27T01:06:29.899Z,-3.58
2023-02-27T01:09:15.673Z,-3.60
2023-02-27T01:12:01.481Z,-3.63
2023-02-27T01:14:48.272Z,-3.70
2023-02-27T01:17:38.119Z,-3.75
2023-02-27T01:20:23.988Z,-3.83
2023-02-27T01:23:09.839Z,-3.86
2023-02-27T01:25:55.898Z,-3.84
2023-02-27T01:28:41.556Z,-3.89
2023-02-27T01:31:27.642Z,-3.90
2023-02-27T01:34:15.519Z,-3.91
2023-02-27T01:37:01.199Z,-3.94
2023-02-27T01:39:47.081Z,-3.97
2023-02-27T01:42:32.829Z,-4.02
2023-02-27T01:45:26.221Z,-4.06
2023-02-27T01:48:13.604Z,-4.11
2023-02-27T01:51:01.696Z,-4.13
2023-02-27T01:53:47.936Z,-4.11
2023-02-27T01:56:33.752Z,-4.11
2023-02-27T01:59:19.534Z,-4.14
2023-02-27T02:02:11.658Z,-4.16
2023-02-27T02:04:57.917Z,-4.18
2023-02-27T02:07:45.957Z,-4.21
2023-02-27T02:10:31.999Z,-4.26
2023-02-27T02:13:17.967Z,-4.32
2023-02-27T02:16:09.224Z,-4.32
2023-02-27T02:18:57.623Z,-4.31
2023-02-27T02:22:01.869Z,-4.34
2023-02-27T02:25:02.538Z,-4.34
2023-02-27T02:27:53.504Z,-4.40
2023-02-27T02:30:47.849Z,-4.42
2023-02-27T02:33:43.310Z,-4.45
2023-02-27T02:36:47.486Z,-4.46
2023-02-27T02:39:47.251Z,-4.46
2023-02-27T02:42:34.056Z,-4.45
2023-02-27T02:45:22.900Z,-4.44
2023-02-27T02:48:10.443Z,-4.50
2023-02-27T02:50:57.901Z,-4.55
2023-02-27T02:53:46.266Z,-4.56
2023-02-27T02:56:35.810Z,-4.58
2023-02-27T02:59:23.326Z,-4.56
2023-02-27T03:02:10.159Z,-4.54
2023-02-27T03:04:57.261Z,-4.57
2023-02-27T03:07:44.174Z,-4.57
2023-02-27T03:10:31.310Z,-4.58
2023-02-27T03:13:20.286Z,-4.60
2023-02-27T03:16:07.978Z,-4.59
2023-02-27T03:18:54.333Z,-4.60
2023-02-27T03:21:42.399Z,-4.60
2023-02-27T03:24:29.021Z,-4.58
2023-02-27T03:27:15.532Z,-4.59
2023-02-27T03:30:04.921Z,-4.62
2023-02-27T03:32:53.685Z,-4.61
2023-02-27T03:35:42.300Z,-4.62
2023-02-27T03:38:31.669Z,-4.60
2023-02-27T03:41:19.460Z,-4.61
2023-02-27T03:44:15.150Z,-4.62
2023-02-27T03:47:02.223Z,-4.64
2023-02-27T03:49:50.988Z,-4.61
2023-02-27T03:52:37.511Z,-4.56
2023-02-27T03:55:25.232Z,-4.50
2023-02-27T03:58:11.981Z,-4.43
2023-02-27T04:00:58.114Z,-4.38
2023-02-27T04:03:47.248Z,-4.32
2023-02-27T04:06:55.548Z,-4.24
2023-02-27T04:09:44.879Z,-4.19
2023-02-27T04:12:35.918Z,-4.15
2023-02-27T04:15:24.031Z,-4.11
2023-02-27T04:18:12.668Z,-4.06
2023-02-27T04:21:00.491Z,-4.03
2023-02-27T04:23:47.385Z,-4.00
2023-02-27T04:26:34.050Z,-3.94
2023-02-27T04:29:21.420Z,-3.90
2023-02-27T04:32:08.033Z,-3.88
2023-02-27T04:34:54.792Z,-3.83
2023-02-27T04:37:45.616Z,-3.79
2023-02-27T04:40:33.440Z,-3.79
2023-02-27T04:43:19.501Z,-3.76
2023-02-27T04:46:05.718Z,-3.76
2023-02-27T04:48:53.134Z,-3.80
2023-02-27T04:51:40.068Z,-3.79
2023-02-27T04:54:27.916Z,-3.81
2023-02-27T04:57:15.035Z,-3.82
2023-02-27T05:00:00.873Z,-3.83
2023-02-27T05:02:48.008Z,-3.82
2023-02-27T05:05:34.432Z,-3.81
2023-02-27T05:08:21.611Z,-3.79
2023-02-27T05:11:10.377Z,-3.78
2023-02-27T05:13:56.366Z,-3.75
2023-02-27T05:16:42.807Z,-3.74
2023-02-27T05:19:28.617Z,-3.73
2023-02-27T05:22:21.697Z,-3.69
2023-02-27T05:25:09.706Z,-3.62
2023-02-27T05:27:57.879Z,-3.56
2023-02-27T05:30:44.399Z,-3.52
2023-02-27T05:33:31.577Z,-3.45
2023-02-27T05:36:18.343Z,-3.39
2023-02-27T05:39:05.389Z,-3.33
2023-02-27T05:41:51.532Z,-3.27
2023-02-27T05:44:40.104Z,-3.21
2023-02-27T05:47:26.927Z,-3.13
2023-02-27T05:50:13.606Z,-3.08
2023-02-27T05:53:00.286Z,-3.03
2023-02-27T05:55:47.392Z,-2.98
2023-02-27T05:58:34.072Z,-2.92
2023-02-27T06:01:21.408Z,-2.86
2023-02-27T06:04:07.152Z,-2.82
2023-02-27T06:06:53.275Z,-2.77
2023-02-27T06:09:38.975Z,-2.73
2023-02-27T06:12:25.298Z,-2.69
2023-02-27T06:15:13.908Z,-2.64
2023-02-27T06:18:01.166Z,-2.62
2023-02-27T06:20:47.448Z,-2.56
2023-02-27T06:23:33.391Z,-2.52
2023-02-27T06:26:19.343Z,-2.48
2023-02-27T06:29:05.368Z,-2.42
2023-02-27T06:31:51.361Z,-2.39
2023-02-27T06:34:38.426Z,-2.35
2023-02-27T06:37:24.171Z,-2.30
2023-02-27T06:40:12.219Z,-2.23
2023-02-27T06:42:58.156Z,-2.18
2023-02-27T06:45:44.011Z,-2.14
2023-02-27T06:48:29.802Z,-2.11
2023-02-27T06:51:16.889Z,-2.05
2023-02-27T06:54:02.710Z,-1.98
2023-02-27T06:56:48.834Z,-1.95
2023-02-27T06:59:34.858Z,-1.90
2023-02-27T07:02:20.823Z,-1.87
2023-02-27T07:05:08.164Z,-1.84
2023-02-27T07:07:58.362Z,-1.81
2023-02-27T07:10:46.914Z,-1.74
2023-02-27T07:13:32.895Z,-1.71
2023-02-27T07:16:18.719Z,-1.65
2023-02-27T07:19:04.631Z,-1.62
2023-02-27T07:21:50.780Z,-1.59
2023-02-27T07:24:37.816Z,-1.58
2023-02-27T07:27:23.555Z,-1.56
2023-02-27T07:30:09.894Z,-1.54
2023-02-27T07:32:55.518Z,-1.54
2023-02-27T07:35:41.293Z,-1.52
2023-02-27T07:38:28.768Z,-1.49
2023-02-27T07:41:29.655Z,-1.46
2023-02-27T07:44:18.601Z,-1.43
2023-02-27T07:47:04.435Z,-1.43
2023-02-27T07:49:50.237Z,-1.41
2023-02-27T07:52:36.108Z,-1.40
2023-02-27T07:55:21.851Z,-1.36
2023-02-27T07:58:09.216Z,-1.33
2023-02-27T08:00:55.180Z,-1.30
2023-02-27T08:03:41.342Z,-1.27
2023-02-27T08:06:27.441Z,-1.27
2023-02-27T08:09:13.284Z,-1.23
2023-02-27T08:11:59.255Z,-1.19
2023-02-27T08:14:46.442Z,-1.18
2023-02-27T08:17:32.164Z,-1.15
2023-02-27T08:20:18.908Z,-1.12
2023-02-27T08:23:04.984Z,-1.10
2023-02-27T08:25:50.808Z,-1.09
2023-02-27T08:28:36.661Z,-1.06
2023-02-27T08:31:23.761Z,-1.01
2023-02-27T08:34:10.932Z,-0.96
2023-02-27T08:36:56.773Z,-0.94
2023-02-27T08:39:42.532Z,-0.88
2023-02-27T08:42:28.511Z,-0.82
2023-02-27T08:45:14.740Z,-0.72
2023-02-27T08:48:02.272Z,-0.63
2023-02-27T08:50:48.425Z,-0.56
2023-02-27T08:53:34.248Z,-0.52
2023-02-27T08:56:19.964Z,-0.45
2023-02-27T08:59:05.773Z,-0.35
2023-02-27T09:01:51.621Z,-0.29
2023-02-27T09:04:38.814Z,-0.21
2023-02-27T09:07:24.676Z,-0.12
2023-02-27T09:10:11.083Z,-0.03
2023-02-27T09:12:56.991Z,0.10
2023-02-27T09:15:43.025Z,0.23
2023-02-27T09:18:29.131Z,0.36
2023-02-27T09:21:17.093Z,0.50
2023-02-27T09:24:17.172Z,0.63
2023-02-27T09:27:05.220Z,0.67
2023-02-27T09:29:55.270Z,0.93
2023-02-27T09:32:41.654Z,1.13
2023-02-27T09:35:28.027Z,1.38
2023-02-27T09:38:15.311Z,1.64
2023-02-27T09:41:01.481Z,1.92
2023-02-27T09:43:48.485Z,2.16
2023-02-27T09:46:34.575Z,2.40
2023-02-27T09:49:21.028Z,2.63
2023-02-27T09:52:06.915Z,3.04
2023-02-27T09:54:55.085Z,3.20
2023-02-27T09:57:43.725Z,3.54
2023-02-27T10:00:36.919Z,3.67
2023-02-27T10:03:26.186Z,3.70
2023-02-27T10:06:16.321Z,3.99
2023-02-27T10:09:05.734Z,4.11
2023-02-27T10:11:55.919Z,4.63
2023-02-27T10:14:42.996Z,4.55
2023-02-27T10:17:29.313Z,4.30
2023-02-27T10:20:21.329Z,5.02
2023-02-27T10:23:07.856Z,5.55
2023-02-27T10:25:53.593Z,5.41
2023-02-27T10:28:40.657Z,5.28
2023-02-27T10:31:27.430Z,5.64
2023-02-27T10:34:14.802Z,6.21
2023-02-27T10:37:01.742Z,6.77
2023-02-27T10:39:48.915Z,7.13
2023-02-27T10:42:36.078Z,7.19
2023-02-27T10:45:23.174Z,6.92
2023-02-27T10:48:09.055Z,7.00
2023-02-27T10:50:55.991Z,7.01
2023-02-27T10:53:41.994Z,6.50
2023-02-27T10:56:28.145Z,5.91
2023-02-27T10:59:18.513Z,5.95
2023-02-27T11:02:05.962Z,5.59
2023-02-27T11:04:53.821Z,5.67
2023-02-27T11:07:40.362Z,5.72
2023-02-27T11:10:26.721Z,5.90
2023-02-27T11:13:21.426Z,5.97
2023-02-27T11:16:17.319Z,5.75
2023-02-27T11:19:05.008Z,6.39
2023-02-27T11:22:00.529Z,6.30
2023-02-27T11:24:46.372Z,6.83
2023-02-27T11:27:33.419Z,7.09
2023-02-27T11:30:24.767Z,7.62
2023-02-27T11:33:13.437Z,7.56
2023-02-27T11:36:00.811Z,7.75
2023-02-27T11:38:51.195Z,8.29
2023-02-27T11:41:37.745Z,8.19
2023-02-27T11:44:50.305Z,9.08
2023-02-27T11:47:33.341Z,9.51
2023-02-27T11:50:34.679Z,9.75
2023-02-27T11:53:29.304Z,9.56
2023-02-27T11:56:16.001Z,9.99
2023-02-27T11:59:02.373Z,9.33
2023-02-27T12:01:49.572Z,9.44
2023-02-27T12:04:41.310Z,9.86
2023-02-27T12:07:27.538Z,10.18
2023-02-27T12:10:17.106Z,9.46
2023-02-27T12:13:04.024Z,10.02
2023-02-27T12:15:51.343Z,9.72
2023-02-27T12:18:39.122Z,9.51
2023-02-27T12:21:25.823Z,8.44
2023-02-27T12:24:15.308Z,8.93
2023-02-27T12:27:06.698Z,8.19
2023-02-27T12:29:53.228Z,8.43
2023-02-27T12:32:40.555Z,8.82
2023-02-27T12:35:27.512Z,8.64
2023-02-27T12:38:14.708Z,9.32
2023-02-27T12:41:03.295Z,9.07
2023-02-27T12:43:51.578Z,9.72
2023-02-27T12:46:40.597Z,10.27
2023-02-27T12:49:30.000Z,10.27
2023-02-27T12:52:18.514Z,9.76
2023-02-27T12:55:07.015Z,10.06
2023-02-27T12:58:05.332Z,9.74
2023-02-27T13:00:53.704Z,9.80
2023-02-27T13:03:40.306Z,10.02
2023-02-27T13:06:27.739Z,10.39
2023-02-27T13:09:16.275Z,11.17
2023-02-27T13:12:04.928Z,11.42
2023-02-27T13:14:51.048Z,11.88
2023-02-27T13:17:39.021Z,11.72
2023-02-27T13:20:27.765Z,11.38
2023-02-27T13:23:15.049Z,11.53
2023-02-27T13:26:00.935Z,11.36
2023-02-27T13:28:46.712Z,10.45
2023-02-27T13:31:34.930Z,10.53
2023-02-27T13:34:23.674Z,10.52
2023-02-27T13:37:09.935Z,10.20
2023-02-27T13:40:01.197Z,9.66
2023-02-27T13:42:54.919Z,9.96
2023-02-27T13:45:48.190Z,9.22
2023-02-27T13:48:39.905Z,9.34
2023-02-27T13:51:43.030Z,9.32
2023-02-27T13:54:29.892Z,8.31
2023-02-27T13:57:25.201Z,8.10
2023-02-27T14:00:17.767Z,8.21
2023-02-27T14:03:05.594Z,7.61
2023-02-27T14:05:51.666Z,7.87
2023-02-27T14:08:40.687Z,7.88
2023-02-27T14:11:27.461Z,8.06
2023-02-27T14:14:35.434Z,7.89
2023-02-27T14:17:36.183Z,7.43
2023-02-27T14:20:37.243Z,7.51
2023-02-27T14:23:23.214Z,7.61
2023-02-27T14:26:15.477Z,7.57
2023-02-27T14:29:01.668Z,7.10
2023-02-27T14:31:47.693Z,7.09
2023-02-27T14:34:33.405Z,6.97
2023-02-27T14:37:23.091Z,6.95
2023-02-27T14:40:28.051Z,6.76
2023-02-27T14:43:20.818Z,6.72
2023-02-27T14:46:07.867Z,6.79
2023-02-27T14:48:54.264Z,6.62
2023-02-27T14:51:40.448Z,6.69
2023-02-27T14:54:26.596Z,6.67
2023-02-27T14:57:15.329Z,6.09
2023-02-27T15:00:02.445Z,6.28
2023-02-27T15:02:48.655Z,5.97
2023-02-27T15:05:35.131Z,5.69
2023-02-27T15:08:22.115Z,5.70
2023-02-27T15:11:08.106Z,5.78
2023-02-27T15:13:57.098Z,5.63
2023-02-27T15:16:44.609Z,5.71
2023-02-27T15:19:31.109Z,5.68
2023-02-27T15:22:21.362Z,5.56
2023-02-27T15:25:26.578Z,5.56
2023-02-27T15:28:16.798Z,5.44
2023-02-27T15:31:02.779Z,5.57
2023-02-27T15:33:50.016Z,5.35
2023-02-27T15:36:36.036Z,5.31
2023-02-27T15:39:22.502Z,5.16
2023-02-27T15:42:09.021Z,5.08
2023-02-27T15:44:54.806Z,4.98
2023-02-27T15:47:42.339Z,5.04
2023-02-27T15:50:32.565Z,4.91
2023-02-27T15:53:19.180Z,4.82
2023-02-27T15:56:06.072Z,4.78
2023-02-27T15:58:54.330Z,4.84
2023-02-27T16:01:40.857Z,4.72
2023-02-27T16:04:26.909Z,4.77
2023-02-27T16:07:16.534Z,4.76
2023-02-27T16:10:04.731Z,4.81
2023-02-27T16:12:50.754Z,4.70
2023-02-27T16:15:38.182Z,4.64
2023-02-27T16:18:27.221Z,4.59
2023-02-27T16:21:13.757Z,4.61
2023-02-27T16:24:14.639Z,4.41
2023-02-27T16:27:02.301Z,4.17
2023-02-27T16:29:48.841Z,4.20
2023-02-27T16:32:35.792Z,4.09
2023-02-27T16:35:22.221Z,4.09
2023-02-27T16:38:09.627Z,3.99
2023-02-27T16:40:55.660Z,3.86
2023-02-27T16:43:43.265Z,3.84
2023-02-27T16:46:30.931Z,3.76
2023-02-27T16:49:20.263Z,3.69
2023-02-27T16:52:07.210Z,3.50
2023-02-27T16:54:53.458Z,3.41
2023-02-27T16:57:39.214Z,3.29
2023-02-27T17:00:26.973Z,3.13
2023-02-27T17:03:13.265Z,3.08
2023-02-27T17:05:59.167Z,2.99
2023-02-27T17:08:44.895Z,2.90
2023-02-27T17:11:30.654Z,2.84
2023-02-27T17:14:17.059Z,2.77
2023-02-27T17:17:04.521Z,2.70
2023-02-27T17:19:50.549Z,2.60
2023-02-27T17:22:36.904Z,2.50
2023-02-27T17:25:22.674Z,2.43
2023-02-27T17:28:08.688Z,2.35
2023-02-27T17:30:54.658Z,2.33
2023-02-27T17:33:42.006Z,2.19
2023-02-27T17:36:30.868Z,2.18
2023-02-27T17:39:17.541Z,2.05
2023-02-27T17:42:03.448Z,2.08
2023-02-27T17:44:49.501Z,2.03
2023-02-27T17:47:35.573Z,2.00
2023-02-27T17:50:22.648Z,2.00
2023-02-27T17:53:09.618Z,1.95
2023-02-27T17:55:55.750Z,1.94
2023-02-27T17:58:45.236Z,1.91
2023-02-27T18:01:31.149Z,1.88
2023-02-27T18:04:17.803Z,1.86
2023-02-27T18:07:04.931Z,1.88
2023-02-27T18:09:50.617Z,1.83
2023-02-27T18:12:36.571Z,1.83
2023-02-27T18:15:23.773Z,1.85
2023-02-27T18:18:09.633Z,1.83
2023-02-27T18:21:01.895Z,1.83
2023-02-27T18:23:49.797Z,1.83
2023-02-27T18:26:35.704Z,1.80
2023-02-27T18:29:21.762Z,1.80
2023-02-27T18:32:08.403Z,1.80
2023-02-27T18:34:54.408Z,1.78
2023-02-27T18:37:40.539Z,1.74
2023-02-27T18:40:27.719Z,1.73
2023-02-27T18:43:14.304Z,1.70
2023-02-27T18:46:00.480Z,1.70
2023-02-27T18:48:46.390Z,1.68
2023-02-27T18:51:32.199Z,1.65
2023-02-27T18:54:17.907Z,1.62
2023-02-27T18:57:05.920Z,1.62
2023-02-27T18:59:51.677Z,1.62
2023-02-27T19:02:41.611Z,1.61
2023-02-27T19:05:28.047Z,1.59
2023-02-27T19:08:14.063Z,1.57
2023-02-27T19:11:00.165Z,1.54
2023-02-27T19:13:47.662Z,1.53
2023-02-27T19:16:33.944Z,1.51
2023-02-27T19:19:20.213Z,1.49
2023-02-27T19:22:06.245Z,1.49
2023-02-27T19:24:51.807Z,1.45
2023-02-27T19:27:37.938Z,1.46
2023-02-27T19:30:25.714Z,1.44
2023-02-27T19:33:11.821Z,1.43
2023-02-27T19:35:57.735Z,1.42
2023-02-27T19:38:43.692Z,1.40
2023-02-27T19:41:32.401Z,1.36
2023-02-27T19:44:19.526Z,1.30
2023-02-27T19:47:06.794Z,1.25
2023-02-27T19:49:52.801Z,1.20
2023-02-27T19:52:38.735Z,1.13
2023-02-27T19:55:24.501Z,1.06
2023-02-27T19:58:10.196Z,1.01
2023-02-27T20:00:56.418Z,0.93
2023-02-27T20:03:44.078Z,0.84
2023-02-27T20:06:31.016Z,0.79
2023-02-27T20:09:17.736Z,0.74
2023-02-27T20:12:03.864Z,0.68
2023-02-27T20:14:50.138Z,0.64
2023-02-27T20:17:36.176Z,0.57
2023-02-27T20:20:23.141Z,0.53
2023-02-27T20:23:09.085Z,0.46
2023-02-27T20:25:54.888Z,0.44
2023-02-27T20:28:40.912Z,0.40
2023-02-27T20:31:28.520Z,0.37
2023-02-27T20:34:15.877Z,0.33
2023-02-27T20:37:03.139Z,0.30
2023-02-27T20:39:49.327Z,0.26
2023-02-27T20:42:36.337Z,0.22
2023-02-27T20:45:22.141Z,0.21
2023-02-27T20:48:08.210Z,0.18
2023-02-27T20:50:53.964Z,0.15
2023-02-27T20:53:41.429Z,0.13
2023-02-27T20:56:27.990Z,0.11
2023-02-27T20:59:14.600Z,0.09
2023-02-27T21:02:00.292Z,0.05
2023-02-27T21:04:47.264Z,0.08
2023-02-27T21:07:33.653Z,0.06
2023-02-27T21:10:20.841Z,0.00
2023-02-27T21:13:06.724Z,0.03
2023-02-27T21:15:52.543Z,-0.01
2023-02-27T21:18:38.976Z,-0.01
2023-02-27T21:21:26.178Z,0.03
2023-02-27T21:24:12.289Z,0.03
2023-02-27T21:26:59.353Z,-0.01
2023-02-27T21:29:45.083Z,-0.01
2023-02-27T21:32:30.811Z,-0.02
2023-02-27T21:35:16.620Z,-0.04
2023-02-27T21:38:02.449Z,-0.06
2023-02-27T21:40:48.204Z,-0.09
2023-02-27T21:43:35.576Z,-0.12
2023-02-27T21:46:21.602Z,-0.17
2023-02-27T21:49:07.340Z,-0.23
2023-02-27T21:51:53.224Z,-0.26
2023-02-27T21:54:39.220Z,-0.32
2023-02-27T21:57:25.159Z,-0.36
2023-02-27T22:00:13.450Z,-0.40
2023-02-27T22:02:59.408Z,-0.45
2023-02-27T22:05:45.190Z,-0.50
2023-02-27T22:08:30.943Z,-0.56
2023-02-27T22:11:16.573Z,-0.62
2023-02-27T22:14:02.560Z,-0.66
2023-02-27T22:16:49.915Z,-0.68
2023-02-27T22:19:36.017Z,-0.76
2023-02-27T22:22:21.679Z,-0.79
2023-02-27T22:25:07.839Z,-0.87
2023-02-27T22:27:53.625Z,-0.87
2023-02-27T22:30:39.571Z,-0.88
2023-02-27T22:33:27.061Z,-0.88
2023-02-27T22:36:14.563Z,-0.92
2023-02-27T22:39:00.773Z,-0.95
2023-02-27T22:41:46.897Z,-0.97
2023-02-27T22:44:32.838Z,-0.99
2023-02-27T22:47:18.600Z,-1.00
2023-02-27T22:50:06.063Z,-1.00
2023-02-27T22:52:51.973Z,-1.02
2023-02-27T22:55:37.805Z,-1.00
2023-02-27T22:58:23.565Z,-1.01
2023-02-27T23:01:09.968Z,-0.99
2023-02-27T23:03:57.324Z,-0.98
2023-02-27T23:06:46.081Z,-0.97
2023-02-27T23:09:31.719Z,-0.95
2023-02-27T23:12:17.404Z,-0.97
2023-02-27T23:15:03.240Z,-0.97
2023-02-27T23:17:57.787Z,-0.98
2023-02-27T23:20:44.197Z,-0.97
2023-02-27T23:23:31.382Z,-1.00
2023-02-27T23:26:17.131Z,-1.01
2023-02-27T23:29:02.923Z,-1.01
2023-02-27T23:31:48.916Z,-1.02
2023-02-27T23:34:48.773Z,-1.05
2023-02-27T23:37:35.485Z,-1.09
2023-02-27T23:40:23.009Z,-1.15
2023-02-27T23:43:08.923Z,-1.16
2023-02-27T23:45:54.790Z,-1.19
2023-02-27T23:48:41.240Z,-1.25
2023-02-27T23:51:29.793Z,-1.28
2023-02-27T23:54:16.366Z,-1.30
2023-02-27T23:57:03.408Z,-1.34
2023-02-27T23:59:49.259Z,-1.34
